createdAt,value
2023-01-12T00:03:40.534Z,1.15
2023-01-12T00:18:40.808Z,0.01
2023-01-12T00:33:40.484Z,18.93
2023-01-12T00:48:40.211Z,0.74
2023-01-12T01:03:40.586Z,3.08
2023-01-12T01:18:40.299Z,1.81
2023-01-12T01:33:39.996Z,0.62
2023-01-12T01:48:40.657Z,0.07
2023-01-12T02:03:40.666Z,0.13
2023-01-12T02:18:40.414Z,0.21
2023-01-12T02:33:40.324Z,0
2023-01-12T02:48:40.149Z,0
2023-01-12T03:03:40.086Z,0
2023-01-12T03:18:40.057Z,0
2023-01-12T03:33:40.141Z,3.15
2023-01-12T03:48:40.149Z,0.09
2023-01-12T04:03:40.414Z,1.38
2023-01-12T04:18:40.459Z,0.28
2023-01-12T04:33:40.625Z,0.01
2023-01-12T04:48:40.131Z,5.32
2023-01-12T05:18:40.484Z,8.08
2023-01-12T05:33:40.233Z,9.26
2023-01-12T05:48:40.379Z,15.33
2023-01-12T06:03:40.608Z,5.95
2023-01-12T06:18:40.094Z,21.16
2023-01-12T06:33:40.696Z,62.78
2023-01-12T06:48:40.433Z,17.23
2023-01-12T07:03:40.835Z,3.11
2023-01-12T07:18:40.829Z,28.63
2023-01-12T07:33:40.135Z,34.66
2023-01-12T07:48:40.388Z,25.25
2023-01-12T08:03:39.890Z,7.22
2023-01-12T08:18:40.211Z,2.34
2023-01-12T08:33:40.322Z,7.87
2023-01-12T08:48:40.355Z,0.39
2023-01-12T09:03:40.279Z,10.17
2023-01-12T09:18:40.617Z,18.69
2023-01-12T09:33:40.248Z,14.77
2023-01-12T09:48:40.670Z,14.78
2023-01-12T10:03:40.747Z,32.09
2023-01-12T10:18:40.491Z,5.67
2023-01-12T10:33:40.148Z,8.3
2023-01-12T10:48:39.892Z,9.01
2023-01-12T11:03:40.251Z,1.35
2023-01-12T11:18:40.814Z,10.02
2023-01-12T11:33:40.156Z,6.35
2023-01-12T11:48:40.163Z,16.48
2023-01-12T12:03:40.230Z,6.69
2023-01-12T12:18:40.561Z,13.38
2023-01-12T12:33:40.513Z,8.57
2023-01-12T12:48:40.023Z,10.94
2023-01-12T13:03:40.389Z,17.02
2023-01-12T13:18:40.178Z,24.6
2023-01-12T13:33:40.119Z,30.67
2023-01-12T14:03:40.158Z,23.65
2023-01-12T14:18:40.375Z,35.15
2023-01-12T14:33:40.444Z,12.92
2023-01-12T14:48:40.189Z,19.64
2023-01-12T15:03:43.950Z,33.64
2023-01-12T15:18:40.367Z,28.74
2023-01-12T15:33:40.604Z,16.59
2023-01-12T15:48:40.514Z,19.95
2023-01-12T16:04:00.870Z,9.87
2023-01-12T16:18:40.334Z,28.36
2023-01-12T16:33:40.599Z,27.09
2023-01-12T16:48:40.027Z,63.03
2023-01-12T17:03:40.087Z,49.79
2023-01-12T17:18:40.167Z,46.06
2023-01-12T17:33:40.660Z,33.51
2023-01-12T17:48:40.043Z,38.24
2023-01-12T18:03:40.124Z,38.49
2023-01-12T18:18:40.070Z,35.04
2023-01-12T18:33:40.634Z,21.73
2023-01-12T18:48:40.111Z,36.87
2023-01-12T19:03:40.614Z,27.71
2023-01-12T19:18:40.346Z,25.14
2023-01-12T19:33:40.310Z,13.25
2023-01-12T19:48:40.230Z,15.66
2023-01-12T20:03:40.008Z,12.69
2023-01-12T20:18:40.627Z,17.04
2023-01-12T20:33:40.212Z,12.48
2023-01-12T20:48:40.831Z,19.33
2023-01-12T21:03:40.436Z,28.91
2023-01-12T21:18:40.444Z,29.88
2023-01-12T21:33:40.486Z,26.14
2023-01-12T21:48:39.930Z,21.85
2023-01-12T22:03:40.226Z,10
2023-01-12T22:48:40.693Z,10.23
2023-01-12T23:03:40.208Z,9.21
2023-01-12T23:18:40.448Z,10.41
2023-01-12T23:33:40.720Z,8.87
2023-01-12T23:48:40.694Z,6.48
